sensor_id;sensor_type;location;lat;lon;timestamp;pressure;altitude;pressure_sealevel;temperature;humidity
24302;BME280;12421;49.732;20.078;2023-11-22T00:01:29;96842.95;;;1.77;88.33
24302;BME280;12421;49.732;20.078;2023-11-22T00:11:35;96855.08;;;1.55;87.84
24302;BME280;12421;49.732;20.078;2023-11-22T00:21:38;96855.59;;;1.47;88.57
24302;BME280;12421;49.732;20.078;2023-11-22T00:31:41;96870.97;;;1.46;88.39
24302;BME280;12421;49.732;20.078;2023-11-22T00:41:46;96886.20;;;1.54;88.51
24302;BME280;12421;49.732;20.078;2023-11-22T00:51:50;96884.91;;;1.58;87.67
24302;BME280;12421;49.732;20.078;2023-11-22T01:01:53;96895.77;;;1.49;87.21
24302;BME280;12421;49.732;20.078;2023-11-22T01:11:58;96903.29;;;1.38;87.39
24302;BME280;12421;49.732;20.078;2023-11-22T01:22:02;96910.70;;;1.30;87.20
24302;BME280;12421;49.732;20.078;2023-11-22T01:32:05;96921.20;;;1.21;87.08
24302;BME280;12421;49.732;20.078;2023-11-22T01:42:09;96931.41;;;1.01;86.16
24302;BME280;12421;49.732;20.078;2023-11-22T01:52:13;96930.42;;;0.96;86.27
24302;BME280;12421;49.732;20.078;2023-11-22T02:02:17;96943.29;;;0.86;85.73
24302;BME280;12421;49.732;20.078;2023-11-22T02:12:21;96951.13;;;0.82;85.58
24302;BME280;12421;49.732;20.078;2023-11-22T02:22:24;96963.84;;;0.61;84.99
24302;BME280;12421;49.732;20.078;2023-11-22T02:32:27;96978.20;;;0.56;85.55
24302;BME280;12421;49.732;20.078;2023-11-22T02:42:31;96987.87;;;0.56;85.36
24302;BME280;12421;49.732;20.078;2023-11-22T02:52:34;96990.33;;;0.56;85.29
24302;BME280;12421;49.732;20.078;2023-11-22T03:02:37;96997.05;;;0.63;84.91
24302;BME280;12421;49.732;20.078;2023-11-22T03:12:41;97016.85;;;0.54;83.80
24302;BME280;12421;49.732;20.078;2023-11-22T03:22:44;97043.79;;;0.48;84.32
24302;BME280;12421;49.732;20.078;2023-11-22T03:32:48;97060.94;;;0.45;84.34
24302;BME280;12421;49.732;20.078;2023-11-22T03:42:53;97075.03;;;0.42;84.96
24302;BME280;12421;49.732;20.078;2023-11-22T03:52:56;97088.73;;;0.44;85.08
24302;BME280;12421;49.732;20.078;2023-11-22T04:03:00;97104.23;;;0.48;84.55
24302;BME280;12421;49.732;20.078;2023-11-22T04:13:05;97124.34;;;0.29;83.63
24302;BME280;12421;49.732;20.078;2023-11-22T04:23:09;97139.77;;;0.20;83.48
24302;BME280;12421;49.732;20.078;2023-11-22T04:33:14;97158.02;;;0.24;83.87
24302;BME280;12421;49.732;20.078;2023-11-22T04:43:17;97178.13;;;0.27;83.97
24302;BME280;12421;49.732;20.078;2023-11-22T04:53:20;97192.32;;;0.28;82.39
24302;BME280;12421;49.732;20.078;2023-11-22T05:03:24;97206.80;;;0.07;82.19
24302;BME280;12421;49.732;20.078;2023-11-22T05:13:28;97228.88;;;0.11;82.54
24302;BME280;12421;49.732;20.078;2023-11-22T05:23:31;97251.61;;;0.15;82.55
24302;BME280;12421;49.732;20.078;2023-11-22T05:33:35;97267.77;;;0.08;82.71
24302;BME280;12421;49.732;20.078;2023-11-22T05:43:39;97275.62;;;-0.05;82.96
24302;BME280;12421;49.732;20.078;2023-11-22T05:53:42;97297.16;;;-0.20;83.62
24302;BME280;12421;49.732;20.078;2023-11-22T06:03:46;97314.85;;;-0.27;84.82
24302;BME280;12421;49.732;20.078;2023-11-22T06:13:50;97319.87;;;-0.31;86.02
24302;BME280;12421;49.732;20.078;2023-11-22T06:23:53;97328.48;;;-0.36;86.43
24302;BME280;12421;49.732;20.078;2023-11-22T06:34:02;97348.60;;;-0.42;86.89
24302;BME280;12421;49.732;20.078;2023-11-22T06:44:05;97353.50;;;-0.35;87.03
24302;BME280;12421;49.732;20.078;2023-11-22T06:54:09;97368.79;;;-0.46;86.62
24302;BME280;12421;49.732;20.078;2023-11-22T07:04:13;97387.94;;;-0.55;86.52
24302;BME280;12421;49.732;20.078;2023-11-22T07:14:17;97408.11;;;-0.50;85.55
24302;BME280;12421;49.732;20.078;2023-11-22T07:24:22;97419.17;;;-0.50;85.55
24302;BME280;12421;49.732;20.078;2023-11-22T07:34:27;97423.98;;;-0.37;85.46
24302;BME280;12421;49.732;20.078;2023-11-22T07:44:30;97424.31;;;-0.37;84.93
24302;BME280;12421;49.732;20.078;2023-11-22T07:54:37;97429.95;;;-0.39;84.39
24302;BME280;12421;49.732;20.078;2023-11-22T08:04:40;97448.97;;;-0.33;84.55
24302;BME280;12421;49.732;20.078;2023-11-22T08:14:44;97459.33;;;-0.33;83.64
24302;BME280;12421;49.732;20.078;2023-11-22T08:24:47;97469.79;;;-0.30;84.05
24302;BME280;12421;49.732;20.078;2023-11-22T08:34:51;97481.87;;;-0.26;84.12
24302;BME280;12421;49.732;20.078;2023-11-22T08:44:55;97499.19;;;-0.15;83.38
24302;BME280;12421;49.732;20.078;2023-11-22T08:54:59;97510.73;;;-0.33;83.14
24302;BME280;12421;49.732;20.078;2023-11-22T09:05:04;97515.23;;;-0.28;83.65
24302;BME280;12421;49.732;20.078;2023-11-22T09:15:12;97524.61;;;-0.39;83.98
24302;BME280;12421;49.732;20.078;2023-11-22T09:25:23;97523.79;;;-0.55;84.67
24302;BME280;12421;49.732;20.078;2023-11-22T09:35:27;97531.29;;;-0.61;85.24
24302;BME280;12421;49.732;20.078;2023-11-22T09:45:37;97524.42;;;-0.52;85.03
24302;BME280;12421;49.732;20.078;2023-11-22T09:55:43;97529.17;;;-0.54;85.34
24302;BME280;12421;49.732;20.078;2023-11-22T10:05:49;97531.64;;;-0.53;84.65
24302;BME280;12421;49.732;20.078;2023-11-22T10:15:53;97548.56;;;-0.64;84.56
24302;BME280;12421;49.732;20.078;2023-11-22T10:25:56;97562.48;;;-0.65;85.19
24302;BME280;12421;49.732;20.078;2023-11-22T10:36:01;97576.43;;;-0.70;84.78
24302;BME280;12421;49.732;20.078;2023-11-22T10:46:05;97596.83;;;-0.61;85.39
24302;BME280;12421;49.732;20.078;2023-11-22T10:56:17;97617.00;;;-0.60;84.52
24302;BME280;12421;49.732;20.078;2023-11-22T11:06:27;97629.10;;;-0.56;84.87
24302;BME280;12421;49.732;20.078;2023-11-22T11:16:38;97608.14;;;-0.50;84.36
24302;BME280;12421;49.732;20.078;2023-11-22T11:26:48;97598.25;;;-0.52;84.43
24302;BME280;12421;49.732;20.078;2023-11-22T11:36:59;97588.13;;;-0.54;84.29
24302;BME280;12421;49.732;20.078;2023-11-22T11:47:10;97595.98;;;-0.60;83.95
24302;BME280;12421;49.732;20.078;2023-11-22T11:57:13;97613.88;;;-0.57;84.18
24302;BME280;12421;49.732;20.078;2023-11-22T12:07:17;97607.89;;;-0.43;84.35
24302;BME280;12421;49.732;20.078;2023-11-22T12:17:20;97618.62;;;-0.47;83.85
24302;BME280;12421;49.732;20.078;2023-11-22T12:27:23;97632.69;;;-0.41;83.70
24302;BME280;12421;49.732;20.078;2023-11-22T12:37:27;97652.92;;;-0.59;83.55
24302;BME280;12421;49.732;20.078;2023-11-22T12:47:34;97634.98;;;-0.71;83.35
24302;BME280;12421;49.732;20.078;2023-11-22T12:57:40;97620.61;;;-0.68;83.96
24302;BME280;12421;49.732;20.078;2023-11-22T13:07:47;97623.02;;;-0.61;83.94
24302;BME280;12421;49.732;20.078;2023-11-22T13:17:51;97624.86;;;-0.34;84.01
24302;BME280;12421;49.732;20.078;2023-11-22T13:27:59;97627.86;;;-0.28;82.88
24302;BME280;12421;49.732;20.078;2023-11-22T13:38:03;97648.80;;;-0.39;82.32
24302;BME280;12421;49.732;20.078;2023-11-22T13:48:10;97668.42;;;-0.44;81.97
24302;BME280;12421;49.732;20.078;2023-11-22T13:58:15;97669.08;;;-0.33;82.13
24302;BME280;12421;49.732;20.078;2023-11-22T14:08:19;97663.34;;;-0.34;80.60
24302;BME280;12421;49.732;20.078;2023-11-22T14:18:23;97671.72;;;-0.35;79.90
24302;BME280;12421;49.732;20.078;2023-11-22T14:28:28;97676.98;;;-0.33;79.49
24302;BME280;12421;49.732;20.078;2023-11-22T14:38:32;97706.41;;;-0.43;78.59
24302;BME280;12421;49.732;20.078;2023-11-22T14:48:35;97721.77;;;-0.54;78.62
24302;BME280;12421;49.732;20.078;2023-11-22T14:58:40;97741.02;;;-0.56;79.44
24302;BME280;12421;49.732;20.078;2023-11-22T15:08:43;97713.16;;;-0.62;79.24
24302;BME280;12421;49.732;20.078;2023-11-22T15:18:47;97724.91;;;-0.65;79.57
24302;BME280;12421;49.732;20.078;2023-11-22T15:28:50;97741.60;;;-0.69;79.28
24302;BME280;12421;49.732;20.078;2023-11-22T15:38:53;97727.46;;;-0.69;79.65
24302;BME280;12421;49.732;20.078;2023-11-22T15:48:57;97731.24;;;-0.50;80.11
24302;BME280;12421;49.732;20.078;2023-11-22T15:59:01;97723.41;;;-0.40;80.54
24302;BME280;12421;49.732;20.078;2023-11-22T16:09:04;97718.05;;;-0.37;79.65
24302;BME280;12421;49.732;20.078;2023-11-22T16:19:10;97737.86;;;-0.53;78.48
24302;BME280;12421;49.732;20.078;2023-11-22T16:29:13;97744.71;;;-0.58;78.92
24302;BME280;12421;49.732;20.078;2023-11-22T16:39:19;97739.20;;;-0.54;78.25
24302;BME280;12421;49.732;20.078;2023-11-22T16:49:31;97741.27;;;-0.54;79.11
24302;BME280;12421;49.732;20.078;2023-11-22T16:59:35;97728.04;;;-0.38;78.66
24302;BME280;12421;49.732;20.078;2023-11-22T17:09:42;97749.17;;;-0.28;79.11
24302;BME280;12421;49.732;20.078;2023-11-22T17:19:45;97737.04;;;-0.25;78.78
24302;BME280;12421;49.732;20.078;2023-11-22T17:29:50;97719.80;;;-0.21;78.69
24302;BME280;12421;49.732;20.078;2023-11-22T17:39:54;97729.45;;;-0.09;78.43
24302;BME280;12421;49.732;20.078;2023-11-22T17:49:58;97735.85;;;-0.13;77.96
24302;BME280;12421;49.732;20.078;2023-11-22T18:00:02;97725.70;;;-0.24;78.01
24302;BME280;12421;49.732;20.078;2023-11-22T18:10:14;97737.29;;;-0.39;78.28
24302;BME280;12421;49.732;20.078;2023-11-22T18:20:17;97734.45;;;-0.44;78.51
24302;BME280;12421;49.732;20.078;2023-11-22T18:30:20;97752.57;;;-0.60;78.27
24302;BME280;12421;49.732;20.078;2023-11-22T18:40:24;97746.86;;;-0.75;78.58
24302;BME280;12421;49.732;20.078;2023-11-22T18:50:27;97750.77;;;-0.46;79.19
24302;BME280;12421;49.732;20.078;2023-11-22T19:00:31;97757.19;;;-0.41;78.22
24302;BME280;12421;49.732;20.078;2023-11-22T19:10:34;97758.75;;;-0.56;78.13
24302;BME280;12421;49.732;20.078;2023-11-22T19:20:38;97752.84;;;-0.38;78.87
24302;BME280;12421;49.732;20.078;2023-11-22T19:30:42;97716.85;;;-0.37;78.25
24302;BME280;12421;49.732;20.078;2023-11-22T19:40:45;97703.65;;;-0.51;77.71
24302;BME280;12421;49.732;20.078;2023-11-22T19:50:49;97702.88;;;-0.52;78.22
24302;BME280;12421;49.732;20.078;2023-11-22T20:00:52;97710.48;;;-0.44;78.35
24302;BME280;12421;49.732;20.078;2023-11-22T20:10:55;97700.96;;;-0.49;78.18
24302;BME280;12421;49.732;20.078;2023-11-22T20:20:59;97707.98;;;-0.54;78.23
24302;BME280;12421;49.732;20.078;2023-11-22T20:31:02;97690.62;;;-0.45;78.58
24302;BME280;12421;49.732;20.078;2023-11-22T20:41:06;97689.73;;;-0.26;78.23
24302;BME280;12421;49.732;20.078;2023-11-22T20:51:09;97684.49;;;-0.23;78.29
24302;BME280;12421;49.732;20.078;2023-11-22T21:01:12;97676.31;;;-0.21;78.22
24302;BME280;12421;49.732;20.078;2023-11-22T21:11:16;97681.18;;;-0.12;78.30
24302;BME280;12421;49.732;20.078;2023-11-22T21:21:20;97675.35;;;-0.15;77.77
24302;BME280;12421;49.732;20.078;2023-11-22T21:31:24;97659.15;;;-0.23;77.52
24302;BME280;12421;49.732;20.078;2023-11-22T21:41:27;97625.10;;;-0.25;78.00
24302;BME280;12421;49.732;20.078;2023-11-22T21:51:31;97606.73;;;-0.31;77.72
24302;BME280;12421;49.732;20.078;2023-11-22T22:01:36;97592.04;;;-0.35;77.88
24302;BME280;12421;49.732;20.078;2023-11-22T22:11:41;97588.50;;;-0.33;78.02
24302;BME280;12421;49.732;20.078;2023-11-22T22:21:45;97568.77;;;-0.31;78.18
24302;BME280;12421;49.732;20.078;2023-11-22T22:31:48;97567.66;;;-0.20;78.34
24302;BME280;12421;49.732;20.078;2023-11-22T22:41:51;97566.61;;;-0.20;78.11
24302;BME280;12421;49.732;20.078;2023-11-22T22:51:55;97563.71;;;-0.24;78.20
24302;BME280;12421;49.732;20.078;2023-11-22T23:02:12;97549.54;;;-0.33;78.32
24302;BME280;12421;49.732;20.078;2023-11-22T23:12:16;97518.77;;;-0.31;78.01
24302;BME280;12421;49.732;20.078;2023-11-22T23:22:21;97505.26;;;-0.32;77.93
24302;BME280;12421;49.732;20.078;2023-11-22T23:32:24;97492.02;;;-0.39;78.11
24302;BME280;12421;49.732;20.078;2023-11-22T23:42:29;97492.24;;;-0.42;77.59
24302;BME280;12421;49.732;20.078;2023-11-22T23:52:32;97487.38;;;-0.34;77.49
